Terminal Aerodrome Forecast
Issued by NWS Pueblo, CO

Home | Current Version | Previous Version | Text Only | Print | Product List | Glossary On
Versions: 1 2 3 4 5 6 7 8 9 10 11 12 13 14 15 16 17 18 19 20 21 22 23 24 25 26 27 28 29 30 31 32 33 34 35 36 37 38 39 40 41 42
000
FTUS45 KPUB 281731
TAFCOS
TAF
KCOS 281731Z 2818/2918 16012G22KT P6SM FEW100
     FM282100 16014G24KT P6SM SCT100
     FM290100 13012KT P6SM FEW050 SCT090
     FM290600 06008KT P6SM VCSH SCT040 BKN090
     FM291200 13008KT P6SM VCSH BKN040=

USA.gov is the U.S. government's official web portal to all federal, state and local government web resources and services.